sensor_id;sensor_type;location;lat;lon;timestamp;P1;durP1;ratioP1;P2;durP2;ratioP2
70049;SDS011;57391;51.306;22.680;2024-01-30T00:01:44;19.80;;;8.30;;
70049;SDS011;57391;51.306;22.680;2024-01-30T00:03:46;17.80;;;7.40;;
70049;SDS011;57391;51.306;22.680;2024-01-30T00:05:48;15.00;;;7.20;;
70049;SDS011;57391;51.306;22.680;2024-01-30T00:07:50;15.70;;;7.10;;
70049;SDS011;57391;51.306;22.680;2024-01-30T00:09:52;13.80;;;6.50;;
70049;SDS011;57391;51.306;22.680;2024-01-30T00:11:53;13.00;;;6.30;;
70049;SDS011;57391;51.306;22.680;2024-01-30T00:13:56;16.90;;;6.50;;
70049;SDS011;57391;51.306;22.680;2024-01-30T00:15:57;12.90;;;6.50;;
70049;SDS011;57391;51.306;22.680;2024-01-30T00:17:59;14.60;;;7.20;;
70049;SDS011;57391;51.306;22.680;2024-01-30T00:20:01;13.80;;;6.20;;
70049;SDS011;57391;51.306;22.680;2024-01-30T00:22:06;14.80;;;7.30;;
70049;SDS011;57391;51.306;22.680;2024-01-30T00:24:09;13.70;;;6.60;;
70049;SDS011;57391;51.306;22.680;2024-01-30T00:26:11;11.70;;;6.40;;
70049;SDS011;57391;51.306;22.680;2024-01-30T00:28:12;12.90;;;5.90;;
70049;SDS011;57391;51.306;22.680;2024-01-30T00:30:14;13.60;;;6.40;;
70049;SDS011;57391;51.306;22.680;2024-01-30T00:32:16;13.40;;;6.50;;
70049;SDS011;57391;51.306;22.680;2024-01-30T00:34:18;14.50;;;6.20;;
70049;SDS011;57391;51.306;22.680;2024-01-30T00:36:19;13.40;;;6.40;;
70049;SDS011;57391;51.306;22.680;2024-01-30T00:38:22;12.80;;;6.50;;
70049;SDS011;57391;51.306;22.680;2024-01-30T00:40:23;15.50;;;6.90;;
70049;SDS011;57391;51.306;22.680;2024-01-30T00:42:25;15.90;;;7.50;;
70049;SDS011;57391;51.306;22.680;2024-01-30T00:44:27;14.90;;;6.80;;
70049;SDS011;57391;51.306;22.680;2024-01-30T00:46:29;13.90;;;6.90;;
70049;SDS011;57391;51.306;22.680;2024-01-30T00:48:31;13.60;;;7.10;;
70049;SDS011;57391;51.306;22.680;2024-01-30T00:50:32;15.30;;;7.10;;
70049;SDS011;57391;51.306;22.680;2024-01-30T00:52:34;12.70;;;6.20;;
70049;SDS011;57391;51.306;22.680;2024-01-30T00:54:37;14.80;;;7.20;;
70049;SDS011;57391;51.306;22.680;2024-01-30T00:56:38;13.30;;;6.60;;
70049;SDS011;57391;51.306;22.680;2024-01-30T00:58:40;15.40;;;7.00;;
70049;SDS011;57391;51.306;22.680;2024-01-30T01:00:42;13.00;;;6.20;;
70049;SDS011;57391;51.306;22.680;2024-01-30T01:02:44;13.20;;;6.00;;
70049;SDS011;57391;51.306;22.680;2024-01-30T01:04:46;16.00;;;6.80;;
70049;SDS011;57391;51.306;22.680;2024-01-30T01:06:47;14.40;;;6.70;;
70049;SDS011;57391;51.306;22.680;2024-01-30T01:08:49;15.20;;;6.80;;
70049;SDS011;57391;51.306;22.680;2024-01-30T01:10:51;13.40;;;6.50;;
70049;SDS011;57391;51.306;22.680;2024-01-30T01:12:53;16.90;;;6.70;;
70049;SDS011;57391;51.306;22.680;2024-01-30T01:14:55;14.70;;;6.70;;
70049;SDS011;57391;51.306;22.680;2024-01-30T01:16:56;14.60;;;7.80;;
70049;SDS011;57391;51.306;22.680;2024-01-30T01:18:58;14.80;;;6.90;;
70049;SDS011;57391;51.306;22.680;2024-01-30T01:21:01;15.70;;;7.50;;
70049;SDS011;57391;51.306;22.680;2024-01-30T01:23:03;13.70;;;7.20;;
70049;SDS011;57391;51.306;22.680;2024-01-30T01:25:05;14.20;;;6.40;;
70049;SDS011;57391;51.306;22.680;2024-01-30T01:27:11;13.00;;;6.50;;
70049;SDS011;57391;51.306;22.680;2024-01-30T01:29:13;13.50;;;6.60;;
70049;SDS011;57391;51.306;22.680;2024-01-30T01:31:15;13.00;;;6.70;;
70049;SDS011;57391;51.306;22.680;2024-01-30T01:33:17;13.90;;;6.30;;
70049;SDS011;57391;51.306;22.680;2024-01-30T01:35:18;13.90;;;7.10;;
70049;SDS011;57391;51.306;22.680;2024-01-30T01:37:20;13.40;;;6.40;;
70049;SDS011;57391;51.306;22.680;2024-01-30T01:39:23;14.50;;;7.10;;
70049;SDS011;57391;51.306;22.680;2024-01-30T01:41:30;15.70;;;6.60;;
70049;SDS011;57391;51.306;22.680;2024-01-30T01:43:35;15.70;;;7.10;;
70049;SDS011;57391;51.306;22.680;2024-01-30T01:45:36;12.80;;;6.20;;
70049;SDS011;57391;51.306;22.680;2024-01-30T01:47:38;11.60;;;6.70;;
70049;SDS011;57391;51.306;22.680;2024-01-30T01:49:40;12.90;;;5.80;;
70049;SDS011;57391;51.306;22.680;2024-01-30T01:51:43;12.40;;;5.80;;
70049;SDS011;57391;51.306;22.680;2024-01-30T01:53:47;12.60;;;5.90;;
70049;SDS011;57391;51.306;22.680;2024-01-30T01:55:49;13.30;;;5.90;;
70049;SDS011;57391;51.306;22.680;2024-01-30T01:57:53;12.20;;;5.50;;
70049;SDS011;57391;51.306;22.680;2024-01-30T01:59:55;12.00;;;6.30;;
70049;SDS011;57391;51.306;22.680;2024-01-30T02:01:57;13.10;;;6.20;;
70049;SDS011;57391;51.306;22.680;2024-01-30T02:03:59;15.10;;;6.40;;
70049;SDS011;57391;51.306;22.680;2024-01-30T02:06:02;14.10;;;6.80;;
70049;SDS011;57391;51.306;22.680;2024-01-30T02:08:05;12.90;;;6.00;;
70049;SDS011;57391;51.306;22.680;2024-01-30T02:10:08;14.50;;;6.50;;
70049;SDS011;57391;51.306;22.680;2024-01-30T02:12:11;13.80;;;5.90;;
70049;SDS011;57391;51.306;22.680;2024-01-30T02:14:12;12.10;;;6.10;;
70049;SDS011;57391;51.306;22.680;2024-01-30T02:16:14;13.60;;;6.40;;
70049;SDS011;57391;51.306;22.680;2024-01-30T02:18:16;11.40;;;5.80;;
70049;SDS011;57391;51.306;22.680;2024-01-30T02:20:18;15.90;;;6.40;;
70049;SDS011;57391;51.306;22.680;2024-01-30T02:22:20;11.50;;;6.30;;
70049;SDS011;57391;51.306;22.680;2024-01-30T02:24:22;14.80;;;7.20;;
70049;SDS011;57391;51.306;22.680;2024-01-30T02:26:24;13.80;;;6.60;;
70049;SDS011;57391;51.306;22.680;2024-01-30T02:28:26;15.20;;;7.40;;
70049;SDS011;57391;51.306;22.680;2024-01-30T02:30:28;15.90;;;7.70;;
70049;SDS011;57391;51.306;22.680;2024-01-30T02:32:30;14.00;;;6.10;;
70049;SDS011;57391;51.306;22.680;2024-01-30T02:34:32;13.90;;;5.60;;
70049;SDS011;57391;51.306;22.680;2024-01-30T02:36:33;12.80;;;6.20;;
70049;SDS011;57391;51.306;22.680;2024-01-30T02:38:35;13.40;;;6.30;;
70049;SDS011;57391;51.306;22.680;2024-01-30T02:40:37;13.10;;;6.60;;
70049;SDS011;57391;51.306;22.680;2024-01-30T02:42:39;12.90;;;6.20;;
70049;SDS011;57391;51.306;22.680;2024-01-30T02:44:40;17.10;;;6.50;;
70049;SDS011;57391;51.306;22.680;2024-01-30T02:46:42;11.90;;;6.30;;
70049;SDS011;57391;51.306;22.680;2024-01-30T02:48:44;13.30;;;6.20;;
70049;SDS011;57391;51.306;22.680;2024-01-30T02:50:45;13.50;;;6.30;;
70049;SDS011;57391;51.306;22.680;2024-01-30T02:52:48;10.50;;;5.90;;
70049;SDS011;57391;51.306;22.680;2024-01-30T02:54:50;12.30;;;6.10;;
70049;SDS011;57391;51.306;22.680;2024-01-30T02:56:51;14.90;;;6.40;;
70049;SDS011;57391;51.306;22.680;2024-01-30T02:58:53;13.90;;;5.70;;
70049;SDS011;57391;51.306;22.680;2024-01-30T03:00:55;13.60;;;6.10;;
70049;SDS011;57391;51.306;22.680;2024-01-30T03:02:56;11.60;;;6.20;;
70049;SDS011;57391;51.306;22.680;2024-01-30T03:04:59;12.10;;;5.70;;
70049;SDS011;57391;51.306;22.680;2024-01-30T03:07:01;11.70;;;5.60;;
70049;SDS011;57391;51.306;22.680;2024-01-30T03:09:03;13.40;;;6.30;;
70049;SDS011;57391;51.306;22.680;2024-01-30T03:11:06;13.30;;;6.50;;
70049;SDS011;57391;51.306;22.680;2024-01-30T03:13:07;13.60;;;6.50;;
70049;SDS011;57391;51.306;22.680;2024-01-30T03:15:09;14.00;;;6.10;;
70049;SDS011;57391;51.306;22.680;2024-01-30T03:17:11;14.60;;;6.00;;
70049;SDS011;57391;51.306;22.680;2024-01-30T03:19:12;12.70;;;6.50;;
70049;SDS011;57391;51.306;22.680;2024-01-30T03:21:14;11.50;;;6.20;;
70049;SDS011;57391;51.306;22.680;2024-01-30T03:23:16;13.10;;;6.60;;
70049;SDS011;57391;51.306;22.680;2024-01-30T03:25:17;14.20;;;6.40;;
70049;SDS011;57391;51.306;22.680;2024-01-30T03:27:19;12.20;;;5.90;;
70049;SDS011;57391;51.306;22.680;2024-01-30T03:29:21;13.10;;;6.00;;
70049;SDS011;57391;51.306;22.680;2024-01-30T03:31:23;13.00;;;6.10;;
70049;SDS011;57391;51.306;22.680;2024-01-30T03:33:25;14.00;;;6.10;;
70049;SDS011;57391;51.306;22.680;2024-01-30T03:35:26;13.10;;;6.10;;
70049;SDS011;57391;51.306;22.680;2024-01-30T03:37:28;13.00;;;6.30;;
70049;SDS011;57391;51.306;22.680;2024-01-30T03:39:30;12.90;;;6.60;;
70049;SDS011;57391;51.306;22.680;2024-01-30T03:41:32;13.70;;;6.00;;
70049;SDS011;57391;51.306;22.680;2024-01-30T03:43:33;12.50;;;6.30;;
70049;SDS011;57391;51.306;22.680;2024-01-30T03:45:35;13.10;;;6.30;;
70049;SDS011;57391;51.306;22.680;2024-01-30T03:47:37;12.40;;;5.60;;
70049;SDS011;57391;51.306;22.680;2024-01-30T03:49:39;13.60;;;6.00;;
70049;SDS011;57391;51.306;22.680;2024-01-30T03:51:41;11.90;;;5.90;;
70049;SDS011;57391;51.306;22.680;2024-01-30T03:53:43;10.80;;;5.50;;
70049;SDS011;57391;51.306;22.680;2024-01-30T03:55:45;11.10;;;5.60;;
70049;SDS011;57391;51.306;22.680;2024-01-30T03:57:46;11.50;;;5.50;;
70049;SDS011;57391;51.306;22.680;2024-01-30T03:59:48;13.60;;;5.30;;
70049;SDS011;57391;51.306;22.680;2024-01-30T04:01:50;11.10;;;5.30;;
70049;SDS011;57391;51.306;22.680;2024-01-30T04:03:52;12.10;;;5.50;;
70049;SDS011;57391;51.306;22.680;2024-01-30T04:05:54;13.40;;;5.80;;
70049;SDS011;57391;51.306;22.680;2024-01-30T04:07:56;10.60;;;4.50;;
70049;SDS011;57391;51.306;22.680;2024-01-30T04:09:58;13.20;;;6.50;;
70049;SDS011;57391;51.306;22.680;2024-01-30T04:11:59;12.70;;;6.40;;
70049;SDS011;57391;51.306;22.680;2024-01-30T04:14:01;15.00;;;6.00;;
70049;SDS011;57391;51.306;22.680;2024-01-30T04:16:03;14.00;;;6.00;;
70049;SDS011;57391;51.306;22.680;2024-01-30T04:18:05;12.90;;;5.70;;
70049;SDS011;57391;51.306;22.680;2024-01-30T04:20:07;11.80;;;5.60;;
70049;SDS011;57391;51.306;22.680;2024-01-30T04:22:09;15.20;;;6.20;;
70049;SDS011;57391;51.306;22.680;2024-01-30T04:24:11;13.20;;;5.50;;
70049;SDS011;57391;51.306;22.680;2024-01-30T04:26:13;12.10;;;5.60;;
70049;SDS011;57391;51.306;22.680;2024-01-30T04:28:14;16.70;;;5.50;;
70049;SDS011;57391;51.306;22.680;2024-01-30T04:30:16;13.50;;;5.90;;
70049;SDS011;57391;51.306;22.680;2024-01-30T04:32:18;10.70;;;5.20;;
70049;SDS011;57391;51.306;22.680;2024-01-30T04:34:20;12.40;;;5.70;;
70049;SDS011;57391;51.306;22.680;2024-01-30T04:36:22;12.10;;;5.50;;
70049;SDS011;57391;51.306;22.680;2024-01-30T04:38:23;14.30;;;5.90;;
70049;SDS011;57391;51.306;22.680;2024-01-30T04:40:25;12.80;;;5.60;;
70049;SDS011;57391;51.306;22.680;2024-01-30T04:42:27;12.90;;;5.10;;
70049;SDS011;57391;51.306;22.680;2024-01-30T04:44:28;11.80;;;5.70;;
70049;SDS011;57391;51.306;22.680;2024-01-30T04:46:30;11.10;;;5.40;;
70049;SDS011;57391;51.306;22.680;2024-01-30T04:48:32;12.20;;;5.50;;
70049;SDS011;57391;51.306;22.680;2024-01-30T04:50:34;12.70;;;6.10;;
70049;SDS011;57391;51.306;22.680;2024-01-30T04:52:35;12.10;;;5.80;;
70049;SDS011;57391;51.306;22.680;2024-01-30T04:54:37;11.20;;;5.30;;
70049;SDS011;57391;51.306;22.680;2024-01-30T04:56:39;8.80;;;4.20;;
70049;SDS011;57391;51.306;22.680;2024-01-30T04:58:41;11.10;;;5.30;;
70049;SDS011;57391;51.306;22.680;2024-01-30T05:00:42;10.20;;;4.90;;
70049;SDS011;57391;51.306;22.680;2024-01-30T05:02:44;12.20;;;5.50;;
70049;SDS011;57391;51.306;22.680;2024-01-30T05:04:47;13.50;;;5.40;;
70049;SDS011;57391;51.306;22.680;2024-01-30T05:06:48;11.80;;;5.50;;
70049;SDS011;57391;51.306;22.680;2024-01-30T05:08:50;12.90;;;5.50;;
70049;SDS011;57391;51.306;22.680;2024-01-30T05:10:52;12.00;;;5.30;;
70049;SDS011;57391;51.306;22.680;2024-01-30T05:12:53;10.70;;;4.70;;
70049;SDS011;57391;51.306;22.680;2024-01-30T05:14:55;8.90;;;4.20;;
70049;SDS011;57391;51.306;22.680;2024-01-30T05:16:57;12.40;;;5.10;;
70049;SDS011;57391;51.306;22.680;2024-01-30T05:18:59;12.70;;;4.90;;
70049;SDS011;57391;51.306;22.680;2024-01-30T05:21:02;10.60;;;5.30;;
70049;SDS011;57391;51.306;22.680;2024-01-30T05:23:04;10.50;;;4.60;;
70049;SDS011;57391;51.306;22.680;2024-01-30T05:25:06;9.40;;;4.60;;
70049;SDS011;57391;51.306;22.680;2024-01-30T05:27:08;11.00;;;5.40;;
70049;SDS011;57391;51.306;22.680;2024-01-30T05:29:10;13.30;;;4.90;;
70049;SDS011;57391;51.306;22.680;2024-01-30T05:31:11;11.70;;;4.60;;
70049;SDS011;57391;51.306;22.680;2024-01-30T05:33:13;11.50;;;5.50;;
70049;SDS011;57391;51.306;22.680;2024-01-30T05:35:15;11.80;;;4.80;;
70049;SDS011;57391;51.306;22.680;2024-01-30T05:37:17;11.10;;;4.50;;
70049;SDS011;57391;51.306;22.680;2024-01-30T05:39:19;11.70;;;4.70;;
70049;SDS011;57391;51.306;22.680;2024-01-30T05:41:21;11.30;;;4.60;;
70049;SDS011;57391;51.306;22.680;2024-01-30T05:43:23;13.70;;;5.60;;
70049;SDS011;57391;51.306;22.680;2024-01-30T05:45:25;11.40;;;5.00;;
70049;SDS011;57391;51.306;22.680;2024-01-30T05:47:26;10.90;;;5.40;;
70049;SDS011;57391;51.306;22.680;2024-01-30T05:49:28;12.00;;;4.90;;
70049;SDS011;57391;51.306;22.680;2024-01-30T05:51:30;13.20;;;5.40;;
70049;SDS011;57391;51.306;22.680;2024-01-30T05:53:31;11.90;;;4.80;;
70049;SDS011;57391;51.306;22.680;2024-01-30T05:55:33;11.60;;;5.10;;
70049;SDS011;57391;51.306;22.680;2024-01-30T05:57:35;15.10;;;5.50;;
70049;SDS011;57391;51.306;22.680;2024-01-30T05:59:37;10.60;;;5.10;;
70049;SDS011;57391;51.306;22.680;2024-01-30T06:01:45;11.90;;;4.60;;
70049;SDS011;57391;51.306;22.680;2024-01-30T06:03:48;12.70;;;4.80;;
70049;SDS011;57391;51.306;22.680;2024-01-30T06:05:49;14.60;;;6.50;;
70049;SDS011;57391;51.306;22.680;2024-01-30T06:07:51;12.90;;;6.40;;
70049;SDS011;57391;51.306;22.680;2024-01-30T06:09:53;17.30;;;6.60;;
70049;SDS011;57391;51.306;22.680;2024-01-30T06:11:55;14.60;;;5.70;;
70049;SDS011;57391;51.306;22.680;2024-01-30T06:13:57;10.80;;;4.90;;
70049;SDS011;57391;51.306;22.680;2024-01-30T06:15:58;11.20;;;4.80;;
70049;SDS011;57391;51.306;22.680;2024-01-30T06:18:00;12.10;;;4.80;;
70049;SDS011;57391;51.306;22.680;2024-01-30T06:20:02;12.90;;;5.20;;
70049;SDS011;57391;51.306;22.680;2024-01-30T06:22:05;11.40;;;5.10;;
70049;SDS011;57391;51.306;22.680;2024-01-30T06:24:07;11.80;;;5.70;;
70049;SDS011;57391;51.306;22.680;2024-01-30T06:26:08;11.40;;;5.40;;
70049;SDS011;57391;51.306;22.680;2024-01-30T06:28:10;11.10;;;4.70;;
70049;SDS011;57391;51.306;22.680;2024-01-30T06:30:12;15.20;;;6.20;;
70049;SDS011;57391;51.306;22.680;2024-01-30T06:32:14;12.60;;;5.60;;
70049;SDS011;57391;51.306;22.680;2024-01-30T06:34:16;13.30;;;5.70;;
70049;SDS011;57391;51.306;22.680;2024-01-30T06:36:18;10.40;;;4.70;;
70049;SDS011;57391;51.306;22.680;2024-01-30T06:38:19;11.90;;;5.20;;
70049;SDS011;57391;51.306;22.680;2024-01-30T06:40:21;12.30;;;5.40;;
70049;SDS011;57391;51.306;22.680;2024-01-30T06:42:23;12.00;;;5.40;;
70049;SDS011;57391;51.306;22.680;2024-01-30T06:44:25;13.60;;;5.90;;
70049;SDS011;57391;51.306;22.680;2024-01-30T06:46:26;13.20;;;5.60;;
70049;SDS011;57391;51.306;22.680;2024-01-30T06:48:28;13.10;;;6.40;;
70049;SDS011;57391;51.306;22.680;2024-01-30T06:50:30;13.40;;;5.40;;
70049;SDS011;57391;51.306;22.680;2024-01-30T06:52:32;13.40;;;5.30;;
70049;SDS011;57391;51.306;22.680;2024-01-30T06:54:34;12.00;;;5.20;;
70049;SDS011;57391;51.306;22.680;2024-01-30T06:56:35;11.80;;;5.20;;
70049;SDS011;57391;51.306;22.680;2024-01-30T06:58:37;11.60;;;5.50;;
70049;SDS011;57391;51.306;22.680;2024-01-30T07:00:39;10.30;;;4.90;;
70049;SDS011;57391;51.306;22.680;2024-01-30T07:02:41;11.40;;;5.50;;
70049;SDS011;57391;51.306;22.680;2024-01-30T07:04:43;9.90;;;4.80;;
70049;SDS011;57391;51.306;22.680;2024-01-30T07:06:44;13.60;;;6.20;;
70049;SDS011;57391;51.306;22.680;2024-01-30T07:08:46;11.50;;;5.40;;
70049;SDS011;57391;51.306;22.680;2024-01-30T07:10:48;12.80;;;5.40;;
70049;SDS011;57391;51.306;22.680;2024-01-30T07:12:49;11.00;;;5.30;;
70049;SDS011;57391;51.306;22.680;2024-01-30T07:14:51;11.60;;;5.70;;
70049;SDS011;57391;51.306;22.680;2024-01-30T07:16:53;12.10;;;5.40;;
70049;SDS011;57391;51.306;22.680;2024-01-30T07:18:55;11.70;;;5.50;;
70049;SDS011;57391;51.306;22.680;2024-01-30T07:20:58;10.80;;;5.30;;
70049;SDS011;57391;51.306;22.680;2024-01-30T07:22:59;11.00;;;5.40;;
70049;SDS011;57391;51.306;22.680;2024-01-30T07:25:01;13.60;;;6.20;;
70049;SDS011;57391;51.306;22.680;2024-01-30T07:27:03;10.60;;;5.90;;
70049;SDS011;57391;51.306;22.680;2024-01-30T07:29:05;9.80;;;5.70;;
70049;SDS011;57391;51.306;22.680;2024-01-30T07:31:07;10.70;;;5.50;;
70049;SDS011;57391;51.306;22.680;2024-01-30T07:33:08;11.10;;;5.70;;
70049;SDS011;57391;51.306;22.680;2024-01-30T07:35:10;12.00;;;5.90;;
70049;SDS011;57391;51.306;22.680;2024-01-30T07:37:12;12.70;;;5.40;;
70049;SDS011;57391;51.306;22.680;2024-01-30T07:39:16;13.90;;;5.40;;
70049;SDS011;57391;51.306;22.680;2024-01-30T07:41:18;10.70;;;5.50;;
70049;SDS011;57391;51.306;22.680;2024-01-30T07:43:20;10.40;;;5.20;;
70049;SDS011;57391;51.306;22.680;2024-01-30T07:45:22;12.90;;;6.40;;
70049;SDS011;57391;51.306;22.680;2024-01-30T07:47:25;10.40;;;5.20;;
70049;SDS011;57391;51.306;22.680;2024-01-30T07:49:27;11.20;;;5.70;;
70049;SDS011;57391;51.306;22.680;2024-01-30T07:51:29;10.60;;;5.20;;
70049;SDS011;57391;51.306;22.680;2024-01-30T07:53:33;11.00;;;5.80;;
70049;SDS011;57391;51.306;22.680;2024-01-30T07:55:34;11.10;;;5.50;;
70049;SDS011;57391;51.306;22.680;2024-01-30T07:57:38;12.50;;;5.80;;
70049;SDS011;57391;51.306;22.680;2024-01-30T07:59:44;12.60;;;5.80;;
70049;SDS011;57391;51.306;22.680;2024-01-30T08:01:49;12.10;;;5.30;;
70049;SDS011;57391;51.306;22.680;2024-01-30T08:03:51;10.90;;;5.80;;
70049;SDS011;57391;51.306;22.680;2024-01-30T08:05:53;9.10;;;5.20;;
70049;SDS011;57391;51.306;22.680;2024-01-30T08:07:54;10.40;;;5.90;;
70049;SDS011;57391;51.306;22.680;2024-01-30T08:09:56;9.60;;;5.40;;
70049;SDS011;57391;51.306;22.680;2024-01-30T08:11:58;11.90;;;5.20;;
70049;SDS011;57391;51.306;22.680;2024-01-30T08:13:59;10.60;;;5.50;;
70049;SDS011;57391;51.306;22.680;2024-01-30T08:16:01;11.80;;;6.30;;
70049;SDS011;57391;51.306;22.680;2024-01-30T08:18:03;11.20;;;5.90;;
70049;SDS011;57391;51.306;22.680;2024-01-30T08:20:06;10.40;;;5.60;;
70049;SDS011;57391;51.306;22.680;2024-01-30T08:22:09;11.30;;;5.60;;
70049;SDS011;57391;51.306;22.680;2024-01-30T08:24:13;11.80;;;5.60;;
70049;SDS011;57391;51.306;22.680;2024-01-30T08:26:14;14.40;;;5.50;;
70049;SDS011;57391;51.306;22.680;2024-01-30T08:28:18;10.80;;;5.60;;
70049;SDS011;57391;51.306;22.680;2024-01-30T08:30:20;10.70;;;5.50;;
70049;SDS011;57391;51.306;22.680;2024-01-30T08:32:22;10.00;;;5.30;;
70049;SDS011;57391;51.306;22.680;2024-01-30T08:34:25;13.60;;;6.10;;
70049;SDS011;57391;51.306;22.680;2024-01-30T08:36:26;9.80;;;5.80;;
70049;SDS011;57391;51.306;22.680;2024-01-30T08:38:28;11.00;;;5.50;;
70049;SDS011;57391;51.306;22.680;2024-01-30T08:40:30;12.90;;;6.40;;
70049;SDS011;57391;51.306;22.680;2024-01-30T08:42:32;10.60;;;5.60;;
70049;SDS011;57391;51.306;22.680;2024-01-30T08:44:34;14.90;;;6.30;;
70049;SDS011;57391;51.306;22.680;2024-01-30T08:46:36;11.90;;;6.40;;
70049;SDS011;57391;51.306;22.680;2024-01-30T08:48:38;11.80;;;6.40;;
70049;SDS011;57391;51.306;22.680;2024-01-30T08:50:40;9.90;;;5.20;;
70049;SDS011;57391;51.306;22.680;2024-01-30T08:52:41;9.90;;;5.80;;
70049;SDS011;57391;51.306;22.680;2024-01-30T08:54:43;15.50;;;7.00;;
70049;SDS011;57391;51.306;22.680;2024-01-30T08:56:45;12.80;;;6.40;;
70049;SDS011;57391;51.306;22.680;2024-01-30T08:58:47;11.70;;;6.40;;
70049;SDS011;57391;51.306;22.680;2024-01-30T09:00:48;11.10;;;5.10;;
70049;SDS011;57391;51.306;22.680;2024-01-30T09:02:50;11.60;;;5.50;;
70049;SDS011;57391;51.306;22.680;2024-01-30T09:04:52;12.60;;;6.40;;
70049;SDS011;57391;51.306;22.680;2024-01-30T09:06:54;14.40;;;6.40;;
70049;SDS011;57391;51.306;22.680;2024-01-30T09:08:55;10.90;;;5.10;;
70049;SDS011;57391;51.306;22.680;2024-01-30T09:10:59;12.40;;;6.70;;
70049;SDS011;57391;51.306;22.680;2024-01-30T09:13:00;11.60;;;5.70;;
70049;SDS011;57391;51.306;22.680;2024-01-30T09:15:02;13.30;;;6.70;;
70049;SDS011;57391;51.306;22.680;2024-01-30T09:17:04;11.30;;;5.90;;
70049;SDS011;57391;51.306;22.680;2024-01-30T09:19:06;10.50;;;6.10;;
70049;SDS011;57391;51.306;22.680;2024-01-30T09:21:08;11.20;;;5.20;;
70049;SDS011;57391;51.306;22.680;2024-01-30T09:23:10;13.20;;;6.50;;
70049;SDS011;57391;51.306;22.680;2024-01-30T09:25:12;11.10;;;6.20;;
70049;SDS011;57391;51.306;22.680;2024-01-30T09:27:13;12.20;;;6.10;;
70049;SDS011;57391;51.306;22.680;2024-01-30T09:29:15;11.50;;;6.10;;
70049;SDS011;57391;51.306;22.680;2024-01-30T09:31:17;11.00;;;5.60;;
70049;SDS011;57391;51.306;22.680;2024-01-30T09:33:18;11.60;;;5.80;;
70049;SDS011;57391;51.306;22.680;2024-01-30T09:35:21;10.90;;;5.50;;
70049;SDS011;57391;51.306;22.680;2024-01-30T09:37:23;11.80;;;5.90;;
70049;SDS011;57391;51.306;22.680;2024-01-30T09:39:24;12.10;;;6.00;;
70049;SDS011;57391;51.306;22.680;2024-01-30T09:41:27;11.60;;;5.80;;
70049;SDS011;57391;51.306;22.680;2024-01-30T09:43:32;13.90;;;6.30;;
70049;SDS011;57391;51.306;22.680;2024-01-30T09:45:36;12.40;;;6.30;;
70049;SDS011;57391;51.306;22.680;2024-01-30T09:47:42;11.40;;;6.00;;
70049;SDS011;57391;51.306;22.680;2024-01-30T09:49:45;13.30;;;5.90;;
70049;SDS011;57391;51.306;22.680;2024-01-30T09:51:48;11.70;;;6.40;;
70049;SDS011;57391;51.306;22.680;2024-01-30T09:53:51;12.30;;;5.70;;
70049;SDS011;57391;51.306;22.680;2024-01-30T09:55:55;12.00;;;5.50;;
70049;SDS011;57391;51.306;22.680;2024-01-30T09:57:57;10.50;;;5.50;;
70049;SDS011;57391;51.306;22.680;2024-01-30T10:00:01;11.40;;;6.00;;
70049;SDS011;57391;51.306;22.680;2024-01-30T10:02:04;10.30;;;5.40;;
70049;SDS011;57391;51.306;22.680;2024-01-30T10:04:07;10.40;;;5.30;;
70049;SDS011;57391;51.306;22.680;2024-01-30T10:06:09;11.30;;;6.10;;
70049;SDS011;57391;51.306;22.680;2024-01-30T10:08:11;11.80;;;5.70;;
70049;SDS011;57391;51.306;22.680;2024-01-30T10:10:13;10.80;;;6.00;;
70049;SDS011;57391;51.306;22.680;2024-01-30T10:12:15;12.30;;;5.60;;
70049;SDS011;57391;51.306;22.680;2024-01-30T10:14:17;12.80;;;5.90;;
70049;SDS011;57391;51.306;22.680;2024-01-30T10:16:19;16.20;;;6.00;;
70049;SDS011;57391;51.306;22.680;2024-01-30T10:18:22;10.60;;;5.30;;
70049;SDS011;57391;51.306;22.680;2024-01-30T10:20:24;11.10;;;5.90;;
70049;SDS011;57391;51.306;22.680;2024-01-30T10:22:26;14.20;;;6.00;;
70049;SDS011;57391;51.306;22.680;2024-01-30T10:24:28;13.00;;;7.50;;
70049;SDS011;57391;51.306;22.680;2024-01-30T10:26:33;12.50;;;6.30;;
70049;SDS011;57391;51.306;22.680;2024-01-30T10:28:35;13.20;;;5.90;;
70049;SDS011;57391;51.306;22.680;2024-01-30T10:30:37;12.80;;;6.00;;
70049;SDS011;57391;51.306;22.680;2024-01-30T10:32:39;12.20;;;6.40;;
70049;SDS011;57391;51.306;22.680;2024-01-30T10:34:41;13.10;;;6.20;;
70049;SDS011;57391;51.306;22.680;2024-01-30T10:36:46;15.10;;;6.60;;
70049;SDS011;57391;51.306;22.680;2024-01-30T10:38:51;13.80;;;6.80;;
70049;SDS011;57391;51.306;22.680;2024-01-30T10:40:56;12.30;;;6.10;;
70049;SDS011;57391;51.306;22.680;2024-01-30T10:43:01;13.90;;;6.00;;
70049;SDS011;57391;51.306;22.680;2024-01-30T10:45:07;11.30;;;6.00;;
70049;SDS011;57391;51.306;22.680;2024-01-30T10:47:12;10.90;;;5.40;;
70049;SDS011;57391;51.306;22.680;2024-01-30T10:49:15;10.70;;;5.60;;
70049;SDS011;57391;51.306;22.680;2024-01-30T10:51:18;11.80;;;5.80;;
70049;SDS011;57391;51.306;22.680;2024-01-30T10:53:22;12.60;;;6.90;;
70049;SDS011;57391;51.306;22.680;2024-01-30T10:55:25;12.30;;;6.00;;
70049;SDS011;57391;51.306;22.680;2024-01-30T10:57:29;14.00;;;6.70;;
70049;SDS011;57391;51.306;22.680;2024-01-30T10:59:31;12.30;;;6.20;;
70049;SDS011;57391;51.306;22.680;2024-01-30T11:01:34;12.40;;;5.90;;
70049;SDS011;57391;51.306;22.680;2024-01-30T11:03:37;12.90;;;6.70;;
70049;SDS011;57391;51.306;22.680;2024-01-30T11:05:40;12.30;;;6.20;;
70049;SDS011;57391;51.306;22.680;2024-01-30T11:07:42;11.90;;;5.40;;
70049;SDS011;57391;51.306;22.680;2024-01-30T11:09:52;11.10;;;5.80;;
70049;SDS011;57391;51.306;22.680;2024-01-30T11:11:58;13.30;;;6.00;;
70049;SDS011;57391;51.306;22.680;2024-01-30T11:14:04;12.40;;;6.00;;
70049;SDS011;57391;51.306;22.680;2024-01-30T11:16:06;13.60;;;6.70;;
70049;SDS011;57391;51.306;22.680;2024-01-30T11:18:08;15.60;;;7.10;;
70049;SDS011;57391;51.306;22.680;2024-01-30T11:20:14;14.40;;;7.30;;
70049;SDS011;57391;51.306;22.680;2024-01-30T11:22:20;16.40;;;8.30;;
70049;SDS011;57391;51.306;22.680;2024-01-30T11:24:22;12.40;;;6.30;;
70049;SDS011;57391;51.306;22.680;2024-01-30T11:26:28;14.80;;;6.60;;
70049;SDS011;57391;51.306;22.680;2024-01-30T11:28:32;15.10;;;6.80;;
70049;SDS011;57391;51.306;22.680;2024-01-30T11:30:35;13.30;;;7.00;;
70049;SDS011;57391;51.306;22.680;2024-01-30T11:32:37;11.90;;;6.30;;
70049;SDS011;57391;51.306;22.680;2024-01-30T11:34:41;14.30;;;7.30;;
70049;SDS011;57391;51.306;22.680;2024-01-30T11:36:44;13.20;;;6.10;;
70049;SDS011;57391;51.306;22.680;2024-01-30T11:39:00;13.10;;;5.80;;
70049;SDS011;57391;51.306;22.680;2024-01-30T11:41:03;12.60;;;6.70;;
70049;SDS011;57391;51.306;22.680;2024-01-30T11:43:07;11.40;;;5.90;;
70049;SDS011;57391;51.306;22.680;2024-01-30T11:45:10;11.80;;;6.40;;
70049;SDS011;57391;51.306;22.680;2024-01-30T11:47:12;11.00;;;5.60;;
70049;SDS011;57391;51.306;22.680;2024-01-30T11:49:16;12.10;;;6.20;;
70049;SDS011;57391;51.306;22.680;2024-01-30T11:51:21;11.80;;;6.50;;
70049;SDS011;57391;51.306;22.680;2024-01-30T11:53:22;12.30;;;6.80;;
70049;SDS011;57391;51.306;22.680;2024-01-30T11:55:24;13.30;;;6.20;;